Terminal Aerodrome Forecast
Issued by NWS

Home | Current Version | Previous Version | Text Only | Print | Product List | Glossary On
Versions: 1 2 3 4 5 6 7 8 9 10 11 12 13 14 15 16 17 18
000
FTUS43 KDLH 181720
TAFHIB
TAF
KHIB 181720Z 1818/1918 32012G20KT P6SM SCT015 BKN035
     FM182000 31012G20KT P6SM BKN020
     FM190300 31010KT P6SM FEW020
     FM190900 28006KT P6SM SCT150
     FM191400 24005KT P6SM SCT050
     FM191600 22005KT P6SM BKN040=

USA.gov is the U.S. government's official web portal to all federal, state and local government web resources and services.